Time;durP1;ratioP1;P1;durP2;ratioP2;P2;SDS_P1;SDS_P2;PMS_P1;PMS_P2;Temp;Humidity;BMP_temperature;BMP_pressure;BME280_temperature;BME280_humidity;BME280_pressure;Samples;Min_cycle;Max_cycle;Signal;HPM_P1;HPM_P2
2021/03/03 05:00:28;;;;;;;;;;;5.40;99.90;;;;;;6149321;22;19993;31
2021/03/03 05:02:55;;;;;;;;;;;5.40;99.90;;;;;;4977197;28;19933;-67
2021/03/03 05:05:21;;;;;;;;;;;5.40;99.90;;;;;;4978526;28;20297;-66
2021/03/03 05:07:47;;;;;;;;;;;5.40;99.90;;;;;;4978768;28;19926;-66
2021/03/03 05:10:13;;;;;;;;;;;5.40;99.90;;;;;;4985339;28;19976;-67
2021/03/03 05:12:39;;;;;;;;;;;5.40;99.90;;;;;;5068088;23;20371;-63
2021/03/03 05:15:06;;;;;;;;;;;5.40;99.90;;;;;;5057067;28;19932;-64
2021/03/03 05:17:32;;;;;;;;;;;5.40;99.90;;;;;;5056690;28;19931;-63
2021/03/03 05:19:59;;;;;;;;;;;5.40;99.90;;;;;;5057149;28;20334;-65
2021/03/03 05:22:25;;;;;;;;;;;5.40;99.90;;;;;;5056823;28;19925;-64
2021/03/03 05:24:51;;;;;;;;;;;5.40;99.90;;;;;;5056801;28;20379;-64
2021/03/03 05:27:17;;;;;;;;;;;5.40;99.90;;;;;;5056974;28;19925;-64
2021/03/03 05:29:43;;;;;;;;;;;5.40;99.90;;;;;;5056880;28;19932;-65
2021/03/03 05:32:09;;;;;;;;;;;5.40;99.90;;;;;;5057580;28;19929;-64
2021/03/03 05:34:35;;;;;;;;;;;5.40;99.90;;;;;;5056047;28;19924;-64
2021/03/03 05:37:03;;;;;;;;;;;5.30;99.90;;;;;;5056938;28;19925;-65
2021/03/03 05:39:29;;;;;;;;;;;5.20;99.90;;;;;;5056356;28;19975;-65
2021/03/03 05:41:58;;;;;;;;;;;5.10;99.90;;;;;;5056701;28;20338;-64
2021/03/03 05:44:24;;;;;;;;;;;5.10;99.90;;;;;;5056690;28;19929;-65
2021/03/03 05:46:50;;;;;;;;;;;5.00;99.90;;;;;;5057048;28;19925;-65
2021/03/03 05:49:17;;;;;;;;;;;4.90;99.90;;;;;;5065846;28;19925;-64
2021/03/03 05:51:43;;;;;;;;;;;4.90;99.90;;;;;;5056312;28;19929;-63
2021/03/03 05:54:10;;;;;;;;;;;5.00;99.90;;;;;;5056444;28;19925;-63
2021/03/03 05:56:36;;;;;;;;;;;5.00;99.90;;;;;;5056436;28;19971;-64
2021/03/03 05:59:03;;;;;;;;;;;5.10;99.90;;;;;;5056446;28;20334;-64
2021/03/03 06:01:29;;;;;;;;;;;5.20;99.90;;;;;;5056245;28;19929;-63
2021/03/03 06:03:56;;;;;;;;;;;5.20;99.90;;;;;;5056171;28;20036;-65
2021/03/03 06:06:22;;;;;;;;;;;5.30;99.90;;;;;;5056126;28;19986;-65
2021/03/03 06:08:48;;;;;;;;;;;5.50;99.90;;;;;;5056349;28;19932;-64
2021/03/03 06:11:15;;;;;;;;;;;5.50;99.90;;;;;;5055969;28;19939;-65
2021/03/03 06:13:42;;;;;;;;;;;5.60;99.90;;;;;;5056206;28;20272;-66
2021/03/03 06:16:08;;;;;;;;;;;6.00;99.90;;;;;;5055554;28;20404;-63
2021/03/03 06:18:34;;;;;;;;;;;6.10;99.90;;;;;;5056042;28;19928;-65
2021/03/03 06:21:00;;;;;;;;;;;6.20;99.90;;;;;;5056093;28;19925;-65
2021/03/03 06:23:27;;;;;;;;;;;6.30;99.90;;;;;;5055899;28;19970;-64
2021/03/03 06:26:09;;;;;;;;;;;6.30;99.90;;;;;;5056034;28;19954;-65
2021/03/03 06:28:36;;;;;;;;;;;6.40;99.90;;;;;;5056805;28;19924;-62
2021/03/03 06:31:23;;;;;;;;;;;6.30;99.90;;;;;;5057055;28;20284;-63
2021/03/03 06:33:49;;;;;;;;;;;6.30;99.90;;;;;;5055988;28;19925;-62
2021/03/03 06:36:19;;;;;;;;;;;6.20;99.90;;;;;;5055592;28;19948;-63
2021/03/03 06:38:45;;;;;;;;;;;6.10;99.90;;;;;;5055735;28;19925;-62
2021/03/03 06:41:11;;;;;;;;;;;6.00;99.90;;;;;;5055294;28;19925;-64
2021/03/03 06:43:38;;;;;;;;;;;5.90;99.90;;;;;;5055263;28;19925;-64
2021/03/03 06:46:15;;;;;;;;;;;5.80;99.90;;;;;;5054161;28;19932;-62
2021/03/03 06:48:41;;;;;;;;;;;5.70;99.90;;;;;;5055388;28;19924;-63
2021/03/03 06:51:23;;;;;;;;;;;5.50;99.90;;;;;;5055467;28;19991;-64
2021/03/03 06:53:50;;;;;;;;;;;5.30;99.90;;;;;;5055461;28;19932;-65
2021/03/03 06:56:31;;;;;;;;;;;5.30;99.90;;;;;;5055235;28;19925;-65
2021/03/03 06:59:08;;;;;;;;;;;5.20;99.90;;;;;;5055342;28;19936;-62
2021/03/03 07:01:35;;;;;;;;;;;5.10;99.90;;;;;;5054977;28;19924;-63
2021/03/03 07:04:01;;;;;;;;;;;5.10;99.90;;;;;;5055615;28;19924;-63
2021/03/03 07:06:31;;;;;;;;;;;5.10;99.90;;;;;;5055109;28;19925;-63
2021/03/03 07:08:57;;;;;;;;;;;5.20;99.90;;;;;;5054919;28;19928;-63
2021/03/03 07:11:23;;;;;;;;;;;5.10;99.90;;;;;;5054499;28;19929;-62
2021/03/03 07:13:49;;;;;;;;;;;5.20;99.90;;;;;;5055214;28;19924;-63
2021/03/03 07:16:16;;;;;;;;;;;5.40;99.90;;;;;;5055322;28;19932;-65
2021/03/03 07:18:42;;;;;;;;;;;5.40;99.90;;;;;;5061936;28;19925;-63
2021/03/03 07:21:09;;;;;;;;;;;5.50;99.90;;;;;;5057789;28;19924;-63
2021/03/03 07:23:45;;;;;;;;;;;5.50;99.90;;;;;;5054688;28;19925;-63
2021/03/03 07:26:11;;;;;;;;;;;5.60;99.90;;;;;;5054824;28;19925;-62
2021/03/03 07:28:38;;;;;;;;;;;5.80;99.90;;;;;;5054858;28;19932;-63
2021/03/03 07:31:04;;;;;;;;;;;5.80;99.90;;;;;;5054432;28;19924;-62
2021/03/03 07:33:31;;;;;;;;;;;5.80;99.90;;;;;;5054112;28;20340;-63
2021/03/03 07:35:59;;;;;;;;;;;5.90;99.90;;;;;;5054595;28;19925;-63
2021/03/03 07:38:25;;;;;;;;;;;5.90;99.90;;;;;;5054778;28;19932;-62
2021/03/03 07:40:52;;;;;;;;;;;6.00;99.90;;;;;;5054473;28;19931;-62
2021/03/03 07:43:22;;;;;;;;;;;6.10;99.90;;;;;;5055125;28;19928;-65
2021/03/03 07:45:48;;;;;;;;;;;6.10;99.90;;;;;;5054729;28;19925;-64
2021/03/03 07:48:15;;;;;;;;;;;6.00;99.90;;;;;;5054832;28;19929;-63
2021/03/03 07:50:41;;;;;;;;;;;6.00;99.90;;;;;;5054593;28;19932;-63
2021/03/03 07:53:08;;;;;;;;;;;6.00;99.90;;;;;;5053997;28;20407;-63
2021/03/03 07:55:34;;;;;;;;;;;6.10;99.90;;;;;;5054135;28;19932;-63
2021/03/03 07:58:01;;;;;;;;;;;6.20;99.90;;;;;;5054314;28;19929;-64
2021/03/03 08:00:27;;;;;;;;;;;6.20;99.90;;;;;;5054521;28;19931;-63
2021/03/03 08:02:54;;;;;;;;;;;6.10;99.90;;;;;;5054564;28;19935;-63
2021/03/03 08:05:27;;;;;;;;;;;6.10;99.90;;;;;;5054869;28;19925;-63
2021/03/03 08:08:07;;;;;;;;;;;6.30;99.90;;;;;;5055104;28;20376;-62
2021/03/03 08:10:38;;;;;;;;;;;6.30;99.90;;;;;;5056267;28;19928;-62
2021/03/03 08:13:06;;;;;;;;;;;6.40;99.90;;;;;;5054663;28;19978;-64
2021/03/03 08:15:33;;;;;;;;;;;6.30;99.90;;;;;;5056579;28;19924;-65
2021/03/03 08:18:15;;;;;;;;;;;6.20;99.90;;;;;;5055792;28;19925;-64
2021/03/03 08:20:41;;;;;;;;;;;6.30;99.90;;;;;;5055288;28;19962;-64
2021/03/03 08:23:08;;;;;;;;;;;6.40;99.90;;;;;;5054020;28;20410;-63
2021/03/03 08:25:47;;;;;;;;;;;6.50;99.90;;;;;;5054636;28;19929;-63
2021/03/03 08:28:26;;;;;;;;;;;6.70;99.90;;;;;;5054281;28;19932;-63
2021/03/03 08:31:24;;;;;;;;;;;6.80;99.90;;;;;;5053957;28;19925;-63
2021/03/03 08:33:59;;;;;;;;;;;6.90;99.90;;;;;;5012786;28;20312;-63
2021/03/03 08:36:44;;;;;;;;;;;7.00;99.90;;;;;;5046532;28;19925;-63
2021/03/03 08:39:26;;;;;;;;;;;7.00;99.90;;;;;;5053652;28;19931;-63
2021/03/03 08:41:53;;;;;;;;;;;7.10;99.90;;;;;;5055522;28;19934;-64
2021/03/03 08:44:19;;;;;;;;;;;7.10;99.90;;;;;;5056883;28;19932;-64
2021/03/03 08:46:47;;;;;;;;;;;7.20;99.90;;;;;;5056397;28;19924;-64
2021/03/03 08:49:29;;;;;;;;;;;7.30;99.90;;;;;;5055907;28;19924;-62
2021/03/03 08:52:12;;;;;;;;;;;7.40;99.90;;;;;;5060347;28;19925;-65
2021/03/03 08:54:39;;;;;;;;;;;7.40;99.90;;;;;;5058532;28;19947;-64
2021/03/03 08:57:26;;;;;;;;;;;7.50;99.90;;;;;;5059836;28;19925;-64
2021/03/03 08:59:53;;;;;;;;;;;7.40;99.90;;;;;;5053546;28;19983;-63
2021/03/03 09:02:20;;;;;;;;;;;7.50;99.90;;;;;;5053772;28;19925;-65
2021/03/03 09:04:49;;;;;;;;;;;7.50;99.90;;;;;;5053671;28;20425;-66
2021/03/03 09:07:18;;;;;;;;;;;7.90;99.90;;;;;;5054838;28;19924;-63
2021/03/03 09:09:45;;;;;;;;;;;8.00;99.90;;;;;;5054819;28;19966;-65
2021/03/03 09:12:12;;;;;;;;;;;8.10;99.90;;;;;;5057046;28;19924;-64
2021/03/03 09:14:39;;;;;;;;;;;8.10;99.90;;;;;;5057713;28;19925;-63
2021/03/03 09:17:07;;;;;;;;;;;8.20;99.90;;;;;;5057308;28;19925;-63
2021/03/03 09:19:34;;;;;;;;;;;8.40;99.90;;;;;;5057298;28;19960;-64
2021/03/03 09:22:01;;;;;;;;;;;8.40;99.90;;;;;;5056909;28;19982;-63
2021/03/03 09:24:29;;;;;;;;;;;8.60;99.90;;;;;;5057494;28;19924;-63
2021/03/03 09:27:05;;;;;;;;;;;8.60;99.90;;;;;;5056806;28;20306;-64
2021/03/03 09:29:32;;;;;;;;;;;8.70;99.90;;;;;;5057010;28;19924;-63
2021/03/03 09:32:03;;;;;;;;;;;8.80;99.90;;;;;;5056551;28;20396;-66
2021/03/03 09:34:32;;;;;;;;;;;8.70;99.90;;;;;;5056683;28;20283;-63
2021/03/03 09:37:00;;;;;;;;;;;8.70;99.90;;;;;;5056537;28;19979;-63
2021/03/03 09:39:27;;;;;;;;;;;8.70;99.90;;;;;;5056456;28;19983;-65
2021/03/03 09:41:57;;;;;;;;;;;8.80;99.90;;;;;;5056802;28;19924;-63
2021/03/03 09:44:23;;;;;;;;;;;8.90;99.90;;;;;;5056793;28;19925;-63
2021/03/03 09:46:56;;;;;;;;;;;8.90;99.90;;;;;;5056725;28;19990;-63
2021/03/03 09:49:23;;;;;;;;;;;9.00;99.90;;;;;;5056022;28;20398;-63
2021/03/03 09:51:50;;;;;;;;;;;9.10;99.90;;;;;;5056337;28;19925;-63
2021/03/03 09:54:26;;;;;;;;;;;9.00;99.90;;;;;;5056356;28;19925;-62
2021/03/03 09:56:53;;;;;;;;;;;9.00;99.90;;;;;;5057601;28;19924;-64
2021/03/03 09:59:19;;;;;;;;;;;9.20;99.90;;;;;;5056994;28;20379;-63
2021/03/03 10:01:45;;;;;;;;;;;9.20;99.90;;;;;;5057022;28;19932;-63
2021/03/03 10:04:11;;;;;;;;;;;9.30;99.90;;;;;;5056858;28;19979;-63
2021/03/03 10:06:37;;;;;;;;;;;9.40;99.90;;;;;;5056240;28;19931;-62
2021/03/03 10:09:04;;;;;;;;;;;9.60;99.90;;;;;;5056060;28;19932;-62
2021/03/03 10:11:30;;;;;;;;;;;9.90;99.90;;;;;;5055915;28;20368;-61
2021/03/03 10:14:02;;;;;;;;;;;10.00;99.90;;;;;;5055642;28;20303;-64
2021/03/03 10:16:29;;;;;;;;;;;10.00;99.90;;;;;;5055813;28;19929;-63
2021/03/03 10:18:58;;;;;;;;;;;10.00;99.90;;;;;;5056110;28;20307;-64
2021/03/03 10:21:24;;;;;;;;;;;10.10;99.90;;;;;;5060774;28;19936;-63
2021/03/03 10:23:50;;;;;;;;;;;10.10;99.90;;;;;;5060142;28;20261;-63
2021/03/03 10:26:17;;;;;;;;;;;10.20;99.90;;;;;;5055315;28;19925;-63
2021/03/03 10:28:43;;;;;;;;;;;10.40;99.90;;;;;;5055698;28;19925;-64
2021/03/03 10:31:16;;;;;;;;;;;10.70;99.90;;;;;;5055987;28;19925;-63
2021/03/03 10:33:42;;;;;;;;;;;10.90;99.90;;;;;;5055860;28;19925;-63
2021/03/03 10:36:16;;;;;;;;;;;11.10;99.90;;;;;;5055913;28;19924;-63
2021/03/03 10:38:43;;;;;;;;;;;11.30;99.90;;;;;;5055802;28;20296;-63
2021/03/03 10:41:20;;;;;;;;;;;11.40;99.90;;;;;;5055494;28;19925;-64
2021/03/03 10:43:48;;;;;;;;;;;11.70;99.90;;;;;;5055374;28;19975;-63
2021/03/03 10:46:16;;;;;;;;;;;11.90;99.90;;;;;;5055293;28;19933;-63
2021/03/03 10:48:42;;;;;;;;;;;12.10;99.90;;;;;;5056575;28;19925;-63
2021/03/03 10:51:08;;;;;;;;;;;12.00;99.90;;;;;;5054975;28;20264;-62
2021/03/03 10:53:44;;;;;;;;;;;12.10;99.90;;;;;;5054922;28;19929;-63
2021/03/03 10:56:17;;;;;;;;;;;11.90;99.90;;;;;;5055143;28;19948;-63
2021/03/03 10:58:43;;;;;;;;;;;12.00;99.90;;;;;;5055202;28;19924;-64
2021/03/03 11:01:10;;;;;;;;;;;12.20;99.90;;;;;;5055173;28;19924;-63
2021/03/03 11:03:48;;;;;;;;;;;12.30;99.90;;;;;;5055306;28;19933;-64
2021/03/03 11:06:14;;;;;;;;;;;12.40;99.90;;;;;;5054912;28;19971;-63
2021/03/03 11:08:40;;;;;;;;;;;12.50;99.90;;;;;;5055094;28;19948;-64
2021/03/03 11:11:06;;;;;;;;;;;12.30;99.90;;;;;;5054770;28;19925;-63
2021/03/03 11:13:33;;;;;;;;;;;12.40;99.90;;;;;;5055272;28;20295;-65
2021/03/03 11:15:59;;;;;;;;;;;12.50;99.90;;;;;;5055120;28;19925;-66
2021/03/03 11:18:26;;;;;;;;;;;12.60;99.90;;;;;;5054713;28;20388;-65
2021/03/03 11:20:52;;;;;;;;;;;12.70;99.90;;;;;;5056814;28;19932;-66
2021/03/03 11:23:18;;;;;;;;;;;12.80;99.90;;;;;;5060110;28;19924;-66
2021/03/03 11:25:44;;;;;;;;;;;13.00;99.90;;;;;;5060045;28;19929;-66
2021/03/03 11:28:10;;;;;;;;;;;13.10;99.90;;;;;;5060296;28;19929;-66
2021/03/03 11:30:37;;;;;;;;;;;13.10;99.90;;;;;;5059421;28;19924;-66
2021/03/03 11:33:03;;;;;;;;;;;13.20;99.90;;;;;;5058635;28;19932;-66
2021/03/03 11:35:30;;;;;;;;;;;13.40;99.90;;;;;;5060371;28;19925;-66
2021/03/03 11:37:56;;;;;;;;;;;13.60;99.90;;;;;;5059813;28;19932;-66
2021/03/03 11:40:22;;;;;;;;;;;13.80;99.90;;;;;;5059777;28;19979;-66
2021/03/03 11:42:48;;;;;;;;;;;13.80;99.90;;;;;;5061743;28;19925;-66
2021/03/03 11:45:14;;;;;;;;;;;13.70;99.00;;;;;;5060834;28;19995;-66
2021/03/03 11:47:40;;;;;;;;;;;13.80;99.90;;;;;;5061964;28;19932;-66
2021/03/03 11:50:07;;;;;;;;;;;13.90;99.70;;;;;;5062309;28;19924;-65
2021/03/03 11:52:34;;;;;;;;;;;13.90;99.20;;;;;;5061182;28;19925;-65
2021/03/03 11:55:00;;;;;;;;;;;14.10;99.90;;;;;;5062288;28;19944;-65
2021/03/03 11:57:26;;;;;;;;;;;14.30;99.30;;;;;;5060053;28;19932;-66
2021/03/03 11:59:52;;;;;;;;;;;14.50;98.50;;;;;;5055173;28;19925;-66
2021/03/03 12:02:18;;;;;;;;;;;14.50;97.50;;;;;;5054558;28;19924;-66
2021/03/03 12:04:44;;;;;;;;;;;14.50;98.70;;;;;;5054261;28;20410;-66
2021/03/03 12:07:10;;;;;;;;;;;14.70;97.60;;;;;;5054766;28;19925;-66
2021/03/03 12:09:37;;;;;;;;;;;14.70;96.80;;;;;;5054522;28;20383;-66
2021/03/03 12:12:03;;;;;;;;;;;14.70;96.60;;;;;;5054385;28;20038;-66
2021/03/03 12:14:29;;;;;;;;;;;14.70;97.10;;;;;;5054251;28;19925;-66
2021/03/03 12:16:55;;;;;;;;;;;14.70;96.60;;;;;;5056349;28;19932;-67
2021/03/03 12:19:21;;;;;;;;;;;14.60;97.30;;;;;;5060261;28;19932;-66
2021/03/03 12:21:48;;;;;;;;;;;14.70;98.30;;;;;;5059752;28;19924;-66
2021/03/03 12:24:14;;;;;;;;;;;14.70;97.00;;;;;;5059711;28;19948;-66
2021/03/03 12:26:41;;;;;;;;;;;14.60;98.20;;;;;;5058809;28;19925;-66
2021/03/03 12:29:07;;;;;;;;;;;14.70;97.90;;;;;;5059129;28;19932;-66
2021/03/03 12:31:33;;;;;;;;;;;14.80;97.60;;;;;;5060440;28;19932;-66
2021/03/03 12:33:59;;;;;;;;;;;15.00;97.20;;;;;;5060353;28;19940;-66
2021/03/03 12:36:25;;;;;;;;;;;15.10;97.10;;;;;;5060176;28;19999;-67
2021/03/03 12:38:51;;;;;;;;;;;15.20;97.40;;;;;;5059435;28;19955;-66
2021/03/03 12:41:17;;;;;;;;;;;15.00;96.00;;;;;;5060038;28;20391;-65
2021/03/03 12:43:44;;;;;;;;;;;15.20;97.10;;;;;;5058887;28;19932;-66
2021/03/03 12:46:10;;;;;;;;;;;15.30;95.70;;;;;;5058685;28;19979;-66
2021/03/03 12:48:36;;;;;;;;;;;15.40;96.80;;;;;;5058089;28;20376;-66
2021/03/03 12:51:02;;;;;;;;;;;15.50;95.30;;;;;;5058288;28;19955;-66
2021/03/03 12:53:28;;;;;;;;;;;15.50;95.90;;;;;;5063546;28;19929;-67
2021/03/03 12:55:54;;;;;;;;;;;15.20;96.50;;;;;;5060836;28;20308;-67
2021/03/03 12:58:20;;;;;;;;;;;15.40;96.30;;;;;;5057565;28;19979;-66
2021/03/03 13:00:47;;;;;;;;;;;15.50;96.80;;;;;;5057477;28;19925;-65
2021/03/03 13:03:13;;;;;;;;;;;15.30;96.90;;;;;;5060752;28;19947;-66
2021/03/03 13:05:39;;;;;;;;;;;15.20;97.00;;;;;;5062664;28;19925;-65
2021/03/03 13:08:05;;;;;;;;;;;15.30;96.00;;;;;;5058483;28;20228;-66
2021/03/03 13:10:31;;;;;;;;;;;15.30;96.80;;;;;;5058092;28;19925;-66
2021/03/03 13:12:57;;;;;;;;;;;15.20;96.70;;;;;;5057983;28;20383;-67
2021/03/03 13:15:23;;;;;;;;;;;15.30;94.80;;;;;;5057710;28;20395;-65
2021/03/03 13:17:50;;;;;;;;;;;15.30;97.10;;;;;;5058151;28;19940;-66
2021/03/03 13:20:16;;;;;;;;;;;15.30;95.90;;;;;;5057421;28;19924;-65
2021/03/03 13:22:43;;;;;;;;;;;15.30;94.90;;;;;;5059704;28;19979;-66
2021/03/03 13:25:09;;;;;;;;;;;15.30;95.40;;;;;;5060403;28;19994;-66
2021/03/03 13:27:37;;;;;;;;;;;15.40;96.10;;;;;;5057089;28;19925;-66
2021/03/03 13:30:04;;;;;;;;;;;15.50;95.70;;;;;;5056764;28;19925;-66
2021/03/03 13:32:30;;;;;;;;;;;15.40;95.90;;;;;;5056503;28;19978;-66
2021/03/03 13:34:57;;;;;;;;;;;15.50;95.80;;;;;;5056839;28;19925;-65
2021/03/03 13:37:23;;;;;;;;;;;15.50;96.50;;;;;;5056606;28;19975;-65
2021/03/03 13:39:49;;;;;;;;;;;15.50;95.00;;;;;;5057157;28;19924;-66
2021/03/03 13:42:15;;;;;;;;;;;15.30;94.00;;;;;;5056134;28;19924;-65
2021/03/03 13:44:41;;;;;;;;;;;15.20;94.80;;;;;;5056482;28;20330;-66
2021/03/03 13:47:07;;;;;;;;;;;15.30;94.50;;;;;;5056568;28;20268;-67
2021/03/03 13:49:35;;;;;;;;;;;15.30;95.00;;;;;;5056605;28;19947;-67
2021/03/03 13:52:01;;;;;;;;;;;15.30;94.50;;;;;;5056013;28;20384;-67
2021/03/03 13:54:27;;;;;;;;;;;15.30;94.20;;;;;;5056326;28;19969;-66
2021/03/03 13:56:54;;;;;;;;;;;15.40;94.70;;;;;;5055641;28;19925;-66
2021/03/03 13:59:20;;;;;;;;;;;15.40;94.90;;;;;;5056166;28;19975;-66
2021/03/03 14:01:46;;;;;;;;;;;15.30;95.00;;;;;;5055983;28;19932;-67
2021/03/03 14:04:12;;;;;;;;;;;15.30;94.90;;;;;;5055931;28;19924;-67
2021/03/03 14:06:38;;;;;;;;;;;15.30;94.80;;;;;;5055805;28;19932;-66
2021/03/03 14:09:05;;;;;;;;;;;15.30;95.80;;;;;;5055816;28;19951;-66
2021/03/03 14:11:31;;;;;;;;;;;15.30;96.20;;;;;;5055483;28;19925;-66
2021/03/03 14:13:57;;;;;;;;;;;15.30;95.80;;;;;;5055826;28;19924;-66
2021/03/03 14:16:23;;;;;;;;;;;15.30;95.20;;;;;;5055556;28;19925;-66
2021/03/03 14:18:49;;;;;;;;;;;15.30;95.00;;;;;;5055532;28;19974;-67
2021/03/03 14:21:15;;;;;;;;;;;15.40;96.30;;;;;;5055463;28;19978;-66
2021/03/03 14:23:41;;;;;;;;;;;15.30;96.30;;;;;;5055584;28;19940;-66
2021/03/03 14:26:08;;;;;;;;;;;15.30;95.10;;;;;;5055548;28;19925;-66
2021/03/03 14:28:34;;;;;;;;;;;15.40;95.40;;;;;;5055611;28;19925;-66
2021/03/03 14:31:00;;;;;;;;;;;15.40;94.70;;;;;;5056154;28;19967;-67
2021/03/03 14:33:26;;;;;;;;;;;15.30;94.60;;;;;;5056991;28;19926;-67
2021/03/03 14:35:52;;;;;;;;;;;15.30;94.80;;;;;;5057544;28;19932;-66
2021/03/03 14:38:22;;;;;;;;;;;15.30;95.00;;;;;;5057619;28;19932;-66
2021/03/03 14:40:49;;;;;;;;;;;15.30;94.80;;;;;;5056858;28;19925;-66
2021/03/03 14:43:16;;;;;;;;;;;15.30;94.70;;;;;;5056904;28;20395;-66
2021/03/03 14:45:42;;;;;;;;;;;15.30;94.30;;;;;;5056820;28;19924;-66
2021/03/03 14:48:08;;;;;;;;;;;15.30;94.70;;;;;;5056366;28;19948;-66
2021/03/03 14:50:34;;;;;;;;;;;15.30;93.90;;;;;;5056710;28;20288;-66
2021/03/03 14:53:00;;;;;;;;;;;15.20;94.20;;;;;;5058336;28;19947;-66
2021/03/03 14:55:26;;;;;;;;;;;15.20;94.40;;;;;;5059704;28;20338;-67
2021/03/03 14:57:52;;;;;;;;;;;15.20;94.60;;;;;;5055263;28;19929;-66
2021/03/03 15:00:20;;;;;;;;;;;15.20;93.80;;;;;;5054722;28;19931;-66
2021/03/03 15:02:46;;;;;;;;;;;15.20;93.70;;;;;;5055243;28;19925;-66
2021/03/03 15:05:12;;;;;;;;;;;15.20;93.50;;;;;;5054594;28;20387;-66
2021/03/03 15:07:38;;;;;;;;;;;15.10;93.40;;;;;;5053945;28;19947;-66
2021/03/03 15:10:05;;;;;;;;;;;15.10;93.50;;;;;;5055049;28;19929;-66
2021/03/03 15:12:31;;;;;;;;;;;15.10;93.80;;;;;;5055263;28;19924;-67
2021/03/03 15:14:57;;;;;;;;;;;15.10;93.50;;;;;;5056348;28;20268;-66
2021/03/03 15:17:24;;;;;;;;;;;15.00;92.80;;;;;;5055208;28;20291;-66
2021/03/03 15:19:50;;;;;;;;;;;15.00;92.70;;;;;;5055084;28;19925;-66
2021/03/03 15:22:16;;;;;;;;;;;14.90;92.30;;;;;;5054802;28;19932;-66
2021/03/03 15:24:42;;;;;;;;;;;14.80;92.20;;;;;;5055027;28;19932;-65
2021/03/03 15:27:09;;;;;;;;;;;14.80;93.50;;;;;;5055230;28;19971;-65
2021/03/03 15:29:35;;;;;;;;;;;15.00;99.90;;;;;;5054868;28;19935;-65
2021/03/03 15:32:01;;;;;;;;;;;15.00;99.90;;;;;;5054788;28;20453;-66
2021/03/03 15:34:28;;;;;;;;;;;15.10;99.90;;;;;;5055938;28;19924;-67
2021/03/03 15:36:54;;;;;;;;;;;15.20;99.10;;;;;;5055321;28;19925;-66
2021/03/03 15:39:20;;;;;;;;;;;15.20;97.80;;;;;;5054568;28;19998;-66
2021/03/03 15:41:47;;;;;;;;;;;15.20;97.40;;;;;;5054025;28;19924;-66
2021/03/03 15:44:13;;;;;;;;;;;15.30;96.30;;;;;;5054025;28;20352;-66
2021/03/03 15:46:40;;;;;;;;;;;15.30;95.90;;;;;;5054134;28;19925;-66
2021/03/03 15:49:06;;;;;;;;;;;15.40;99.80;;;;;;5054113;28;20005;-66
2021/03/03 15:51:32;;;;;;;;;;;15.60;99.90;;;;;;5054106;28;19974;-65
2021/03/03 15:53:59;;;;;;;;;;;15.60;98.50;;;;;;5054093;28;19925;-66
2021/03/03 15:56:25;;;;;;;;;;;15.60;97.10;;;;;;5053682;28;20376;-66
2021/03/03 15:58:52;;;;;;;;;;;15.50;97.00;;;;;;5054234;28;19932;-66
2021/03/03 16:01:18;;;;;;;;;;;15.40;96.00;;;;;;5053804;28;19975;-66
2021/03/03 16:03:44;;;;;;;;;;;15.30;94.30;;;;;;5055077;28;20260;-66
2021/03/03 16:06:10;;;;;;;;;;;15.10;94.50;;;;;;5053897;28;19924;-66
2021/03/03 16:08:37;;;;;;;;;;;14.90;94.50;;;;;;5053840;28;20294;-66
2021/03/03 16:11:03;;;;;;;;;;;14.80;94.80;;;;;;5053930;28;19929;-66
2021/03/03 16:13:29;;;;;;;;;;;14.70;94.90;;;;;;5054183;28;19929;-67
2021/03/03 16:15:55;;;;;;;;;;;14.60;95.10;;;;;;5054390;28;19990;-67
2021/03/03 16:18:21;;;;;;;;;;;14.50;95.50;;;;;;5054363;28;19925;-65
2021/03/03 16:20:47;;;;;;;;;;;14.40;95.10;;;;;;5057511;28;19932;-66
2021/03/03 16:23:13;;;;;;;;;;;14.30;95.60;;;;;;5058202;28;20440;-66
2021/03/03 16:25:40;;;;;;;;;;;14.20;95.70;;;;;;5067064;28;19936;-67
2021/03/03 16:28:06;;;;;;;;;;;14.10;95.70;;;;;;5059648;28;19932;-66
2021/03/03 16:30:32;;;;;;;;;;;13.90;95.60;;;;;;5057700;28;19924;-66
2021/03/03 16:32:58;;;;;;;;;;;13.90;95.80;;;;;;5057232;28;20367;-66
2021/03/03 16:35:24;;;;;;;;;;;13.90;97.00;;;;;;5057923;28;20291;-70
2021/03/03 16:37:50;;;;;;;;;;;13.80;96.30;;;;;;5057886;28;19947;-70
2021/03/03 16:40:18;;;;;;;;;;;13.80;97.20;;;;;;5057806;28;19925;-66
2021/03/03 16:42:45;;;;;;;;;;;13.70;97.70;;;;;;5057179;28;19925;-67
2021/03/03 16:45:12;;;;;;;;;;;13.70;98.20;;;;;;5057867;28;19924;-67
2021/03/03 16:47:38;;;;;;;;;;;13.70;98.00;;;;;;5057954;28;19932;-65
2021/03/03 16:50:05;;;;;;;;;;;13.60;98.40;;;;;;5058084;28;19925;-66
2021/03/03 16:52:32;;;;;;;;;;;13.50;98.60;;;;;;5058658;28;19924;-68
2021/03/03 16:54:58;;;;;;;;;;;13.50;98.40;;;;;;5058574;28;19946;-66
2021/03/03 16:57:24;;;;;;;;;;;13.40;98.10;;;;;;5058752;28;19929;-67
2021/03/03 16:59:51;;;;;;;;;;;13.30;95.80;;;;;;5057811;28;19947;-67
2021/03/03 17:02:17;;;;;;;;;;;13.20;95.70;;;;;;5057942;28;19932;-69
2021/03/03 17:04:43;;;;;;;;;;;13.10;96.50;;;;;;5058281;28;19924;-67
2021/03/03 17:07:10;;;;;;;;;;;13.10;96.30;;;;;;5059305;28;20276;-68
2021/03/03 17:09:37;;;;;;;;;;;13.00;95.60;;;;;;5058480;28;19929;-65
2021/03/03 17:12:04;;;;;;;;;;;13.00;95.50;;;;;;5057634;28;19931;-67
2021/03/03 17:14:30;;;;;;;;;;;12.90;95.40;;;;;;5057646;28;19932;-65
2021/03/03 17:16:57;;;;;;;;;;;12.80;94.20;;;;;;5057909;28;19936;-67
2021/03/03 17:19:23;;;;;;;;;;;12.80;94.60;;;;;;5057150;28;20390;-67
2021/03/03 17:21:49;;;;;;;;;;;12.80;94.40;;;;;;5057384;28;20058;-67
2021/03/03 17:24:15;;;;;;;;;;;12.70;94.40;;;;;;5057688;28;19951;-67
2021/03/03 17:26:41;;;;;;;;;;;12.80;94.50;;;;;;5058002;28;19948;-68
2021/03/03 17:29:08;;;;;;;;;;;12.80;95.40;;;;;;5059059;28;19932;-67
2021/03/03 17:31:34;;;;;;;;;;;12.80;95.30;;;;;;5057307;28;20038;-67
2021/03/03 17:34:01;;;;;;;;;;;12.70;95.30;;;;;;5057578;28;19924;-66
2021/03/03 17:36:28;;;;;;;;;;;12.80;94.90;;;;;;5058069;28;19928;-67
2021/03/03 17:38:54;;;;;;;;;;;12.80;94.20;;;;;;5060313;28;19925;-66
2021/03/03 17:41:21;;;;;;;;;;;12.80;95.60;;;;;;5057077;28;19932;-67
2021/03/03 17:43:47;;;;;;;;;;;12.80;94.80;;;;;;5056762;28;19924;-67
2021/03/03 17:46:13;;;;;;;;;;;12.80;95.40;;;;;;5056903;28;19925;-66
2021/03/03 17:48:39;;;;;;;;;;;12.70;94.70;;;;;;5056276;28;20387;-66
2021/03/03 17:51:06;;;;;;;;;;;12.70;94.20;;;;;;5057606;28;19929;-68
2021/03/03 17:53:32;;;;;;;;;;;12.70;94.80;;;;;;5057092;28;19958;-66
2021/03/03 17:55:58;;;;;;;;;;;12.70;94.80;;;;;;5063606;28;19932;-67
2021/03/03 17:58:25;;;;;;;;;;;12.70;94.70;;;;;;5061005;28;19925;-68
2021/03/03 18:00:52;;;;;;;;;;;12.70;95.50;;;;;;5056589;28;19932;-66
2021/03/03 18:03:18;;;;;;;;;;;12.70;96.30;;;;;;5056296;28;19931;-67
2021/03/03 18:05:44;;;;;;;;;;;12.70;98.10;;;;;;5056343;28;19925;-67
2021/03/03 18:08:11;;;;;;;;;;;12.70;97.60;;;;;;5056301;28;20293;-66
2021/03/03 18:10:37;;;;;;;;;;;12.70;97.70;;;;;;5056600;28;19929;-67
2021/03/03 18:13:03;;;;;;;;;;;12.60;97.80;;;;;;5056091;28;19924;-68
2021/03/03 18:15:29;;;;;;;;;;;12.60;97.60;;;;;;5056339;28;19925;-67
2021/03/03 18:17:56;;;;;;;;;;;12.50;98.40;;;;;;5056332;28;19933;-67
2021/03/03 18:20:23;;;;;;;;;;;12.50;98.30;;;;;;5056563;28;19932;-68
2021/03/03 18:22:49;;;;;;;;;;;12.50;97.70;;;;;;5056140;28;20294;-67
2021/03/03 18:25:16;;;;;;;;;;;12.40;98.60;;;;;;5056277;28;19929;-67
2021/03/03 18:27:42;;;;;;;;;;;12.40;98.80;;;;;;5056307;28;19951;-69
2021/03/03 18:30:09;;;;;;;;;;;12.40;99.90;;;;;;5056325;28;19925;-68
2021/03/03 18:32:36;;;;;;;;;;;12.40;99.10;;;;;;5056088;28;19936;-67
2021/03/03 18:35:02;;;;;;;;;;;12.40;98.70;;;;;;5055964;28;19929;-67
2021/03/03 18:37:28;;;;;;;;;;;12.30;99.30;;;;;;5056001;28;20327;-68
2021/03/03 18:39:54;;;;;;;;;;;12.30;99.10;;;;;;5056300;28;19932;-67
2021/03/03 18:42:24;;;;;;;;;;;12.30;99.10;;;;;;5056451;28;19932;-68
2021/03/03 18:44:50;;;;;;;;;;;12.20;98.90;;;;;;5055669;28;19925;-67
2021/03/03 18:47:18;;;;;;;;;;;12.30;99.00;;;;;;5054884;28;20193;-68
2021/03/03 18:49:45;;;;;;;;;;;12.20;98.90;;;;;;5055481;28;20380;-67
2021/03/03 18:52:11;;;;;;;;;;;12.20;98.70;;;;;;5055217;28;20379;-67
2021/03/03 18:54:37;;;;;;;;;;;12.30;99.90;;;;;;5055761;28;19932;-67
2021/03/03 18:57:03;;;;;;;;;;;12.30;99.90;;;;;;5055603;28;19925;-67
2021/03/03 18:59:30;;;;;;;;;;;12.20;97.80;;;;;;5055707;28;19924;-67
2021/03/03 19:01:56;;;;;;;;;;;12.20;98.50;;;;;;5055789;28;19925;-67
2021/03/03 19:04:22;;;;;;;;;;;12.20;99.10;;;;;;5055537;28;19932;-67
2021/03/03 19:06:48;;;;;;;;;;;12.10;98.90;;;;;;5055232;28;20440;-67
2021/03/03 19:09:14;;;;;;;;;;;12.10;99.90;;;;;;5055420;28;19925;-68
2021/03/03 19:11:42;;;;;;;;;;;12.10;99.90;;;;;;5055108;28;20291;-67
2021/03/03 19:14:09;;;;;;;;;;;12.10;99.90;;;;;;5055162;28;19925;-67
2021/03/03 19:16:35;;;;;;;;;;;12.20;99.90;;;;;;5055450;28;19925;-67
2021/03/03 19:19:02;;;;;;;;;;;12.10;99.90;;;;;;5055426;28;19925;-67
2021/03/03 19:21:28;;;;;;;;;;;12.10;99.90;;;;;;5055153;28;19940;-68